sensor_id;sensor_type;location;lat;lon;timestamp;temperature;humidity
28010;DHT22;15334;49.494;8.410;2022-12-07T00:01:53;4.60;99.90
28010;DHT22;15334;49.494;8.410;2022-12-07T00:04:21;4.60;99.90
28010;DHT22;15334;49.494;8.410;2022-12-07T00:06:51;4.60;99.90
28010;DHT22;15334;49.494;8.410;2022-12-07T00:09:19;4.60;99.90
28010;DHT22;15334;49.494;8.410;2022-12-07T00:11:49;4.60;99.90
28010;DHT22;15334;49.494;8.410;2022-12-07T00:14:18;4.70;99.90
28010;DHT22;15334;49.494;8.410;2022-12-07T00:16:48;4.70;99.90
28010;DHT22;15334;49.494;8.410;2022-12-07T00:19:19;4.70;99.90
28010;DHT22;15334;49.494;8.410;2022-12-07T00:21:48;4.70;99.90
28010;DHT22;15334;49.494;8.410;2022-12-07T00:24:16;4.70;99.90
28010;DHT22;15334;49.494;8.410;2022-12-07T00:26:44;4.70;99.90
28010;DHT22;15334;49.494;8.410;2022-12-07T00:29:16;4.70;99.90
28010;DHT22;15334;49.494;8.410;2022-12-07T00:31:45;4.70;99.90
28010;DHT22;15334;49.494;8.410;2022-12-07T00:34:15;4.80;99.90
28010;DHT22;15334;49.494;8.410;2022-12-07T00:36:44;4.80;99.90
28010;DHT22;15334;49.494;8.410;2022-12-07T00:39:13;4.80;99.90
28010;DHT22;15334;49.494;8.410;2022-12-07T00:41:41;4.80;99.90
28010;DHT22;15334;49.494;8.410;2022-12-07T00:44:09;4.80;99.90
28010;DHT22;15334;49.494;8.410;2022-12-07T00:46:39;4.90;99.90
28010;DHT22;15334;49.494;8.410;2022-12-07T00:49:07;4.90;99.90
28010;DHT22;15334;49.494;8.410;2022-12-07T00:51:35;4.90;99.90
28010;DHT22;15334;49.494;8.410;2022-12-07T00:54:05;4.90;99.90
28010;DHT22;15334;49.494;8.410;2022-12-07T00:56:33;4.80;99.90
28010;DHT22;15334;49.494;8.410;2022-12-07T00:59:03;4.80;99.90
28010;DHT22;15334;49.494;8.410;2022-12-07T01:01:33;4.80;99.90
28010;DHT22;15334;49.494;8.410;2022-12-07T01:04:02;4.80;99.90
28010;DHT22;15334;49.494;8.410;2022-12-07T01:06:31;4.80;99.90
28010;DHT22;15334;49.494;8.410;2022-12-07T01:08:59;4.90;99.90
28010;DHT22;15334;49.494;8.410;2022-12-07T01:11:30;4.80;99.90
28010;DHT22;15334;49.494;8.410;2022-12-07T01:14:00;4.80;99.90
28010;DHT22;15334;49.494;8.410;2022-12-07T01:16:30;4.80;99.90
28010;DHT22;15334;49.494;8.410;2022-12-07T01:18:59;4.70;99.90
28010;DHT22;15334;49.494;8.410;2022-12-07T01:21:29;4.70;99.90
28010;DHT22;15334;49.494;8.410;2022-12-07T01:24:01;4.60;99.90
28010;DHT22;15334;49.494;8.410;2022-12-07T01:26:34;4.70;99.90
28010;DHT22;15334;49.494;8.410;2022-12-07T01:29:02;4.70;99.90
28010;DHT22;15334;49.494;8.410;2022-12-07T01:31:30;4.70;99.90
28010;DHT22;15334;49.494;8.410;2022-12-07T01:33:59;4.60;99.90
28010;DHT22;15334;49.494;8.410;2022-12-07T01:36:28;4.50;99.90
28010;DHT22;15334;49.494;8.410;2022-12-07T01:38:59;4.50;99.90
28010;DHT22;15334;49.494;8.410;2022-12-07T01:41:29;4.60;99.90
28010;DHT22;15334;49.494;8.410;2022-12-07T01:44:16;4.60;99.90
28010;DHT22;15334;49.494;8.410;2022-12-07T01:46:46;4.60;99.90
28010;DHT22;15334;49.494;8.410;2022-12-07T01:49:19;4.60;99.90
28010;DHT22;15334;49.494;8.410;2022-12-07T01:51:49;4.70;99.90
28010;DHT22;15334;49.494;8.410;2022-12-07T01:54:19;4.80;99.90
28010;DHT22;15334;49.494;8.410;2022-12-07T01:56:51;4.70;99.90
28010;DHT22;15334;49.494;8.410;2022-12-07T01:59:23;4.80;99.90
28010;DHT22;15334;49.494;8.410;2022-12-07T02:01:53;4.70;99.90
28010;DHT22;15334;49.494;8.410;2022-12-07T02:04:22;4.70;99.90
28010;DHT22;15334;49.494;8.410;2022-12-07T02:06:51;4.60;99.90
28010;DHT22;15334;49.494;8.410;2022-12-07T02:09:19;4.60;99.90
28010;DHT22;15334;49.494;8.410;2022-12-07T02:11:48;4.60;99.90
28010;DHT22;15334;49.494;8.410;2022-12-07T02:14:20;4.60;99.90
28010;DHT22;15334;49.494;8.410;2022-12-07T02:17:03;4.60;99.90
28010;DHT22;15334;49.494;8.410;2022-12-07T02:20:00;4.60;99.90
28010;DHT22;15334;49.494;8.410;2022-12-07T02:22:52;4.50;99.90
28010;DHT22;15334;49.494;8.410;2022-12-07T02:25:33;4.40;99.90
28010;DHT22;15334;49.494;8.410;2022-12-07T02:28:07;4.40;99.90
28010;DHT22;15334;49.494;8.410;2022-12-07T02:30:46;4.40;99.90
28010;DHT22;15334;49.494;8.410;2022-12-07T02:33:18;4.30;99.90
28010;DHT22;15334;49.494;8.410;2022-12-07T02:35:48;4.30;99.90
28010;DHT22;15334;49.494;8.410;2022-12-07T02:38:21;4.30;99.90
28010;DHT22;15334;49.494;8.410;2022-12-07T02:40:55;4.20;99.90
28010;DHT22;15334;49.494;8.410;2022-12-07T02:43:29;4.20;99.90
28010;DHT22;15334;49.494;8.410;2022-12-07T02:46:03;4.20;99.90
28010;DHT22;15334;49.494;8.410;2022-12-07T02:48:32;4.20;99.90
28010;DHT22;15334;49.494;8.410;2022-12-07T02:51:04;4.20;99.90
28010;DHT22;15334;49.494;8.410;2022-12-07T02:53:33;4.20;99.90
28010;DHT22;15334;49.494;8.410;2022-12-07T02:56:04;4.20;99.90
28010;DHT22;15334;49.494;8.410;2022-12-07T02:58:42;4.20;99.90
28010;DHT22;15334;49.494;8.410;2022-12-07T03:01:22;4.10;99.90
28010;DHT22;15334;49.494;8.410;2022-12-07T03:04:02;4.10;99.90
28010;DHT22;15334;49.494;8.410;2022-12-07T03:06:36;4.10;99.90
28010;DHT22;15334;49.494;8.410;2022-12-07T03:09:14;4.10;99.90
28010;DHT22;15334;49.494;8.410;2022-12-07T03:11:46;4.20;99.90
28010;DHT22;15334;49.494;8.410;2022-12-07T03:14:21;4.20;99.90
28010;DHT22;15334;49.494;8.410;2022-12-07T03:16:55;4.20;99.90
28010;DHT22;15334;49.494;8.410;2022-12-07T03:19:26;4.20;99.90
28010;DHT22;15334;49.494;8.410;2022-12-07T03:21:57;4.20;99.90
28010;DHT22;15334;49.494;8.410;2022-12-07T03:24:27;4.20;99.90
28010;DHT22;15334;49.494;8.410;2022-12-07T03:27:02;4.20;99.90
28010;DHT22;15334;49.494;8.410;2022-12-07T03:29:36;4.30;99.90
28010;DHT22;15334;49.494;8.410;2022-12-07T03:32:10;4.30;99.90
28010;DHT22;15334;49.494;8.410;2022-12-07T03:34:42;4.30;99.90
28010;DHT22;15334;49.494;8.410;2022-12-07T03:37:12;4.40;99.90
28010;DHT22;15334;49.494;8.410;2022-12-07T03:39:48;4.40;99.90
28010;DHT22;15334;49.494;8.410;2022-12-07T03:42:19;4.50;99.90
28010;DHT22;15334;49.494;8.410;2022-12-07T03:44:47;4.50;99.90
28010;DHT22;15334;49.494;8.410;2022-12-07T03:47:23;4.50;99.90
28010;DHT22;15334;49.494;8.410;2022-12-07T03:49:56;4.60;99.90
28010;DHT22;15334;49.494;8.410;2022-12-07T03:52:31;4.50;99.90
28010;DHT22;15334;49.494;8.410;2022-12-07T03:55:06;4.60;99.90
28010;DHT22;15334;49.494;8.410;2022-12-07T03:57:37;4.60;99.90
28010;DHT22;15334;49.494;8.410;2022-12-07T04:00:08;4.60;99.90
28010;DHT22;15334;49.494;8.410;2022-12-07T04:02:38;4.60;99.90
28010;DHT22;15334;49.494;8.410;2022-12-07T04:05:07;4.60;99.90
28010;DHT22;15334;49.494;8.410;2022-12-07T04:07:35;4.50;99.90
28010;DHT22;15334;49.494;8.410;2022-12-07T04:10:05;4.50;99.90
28010;DHT22;15334;49.494;8.410;2022-12-07T04:12:33;4.60;99.90
28010;DHT22;15334;49.494;8.410;2022-12-07T04:15:01;4.60;99.90
28010;DHT22;15334;49.494;8.410;2022-12-07T04:17:29;4.60;99.90
28010;DHT22;15334;49.494;8.410;2022-12-07T04:19:58;4.60;99.90
28010;DHT22;15334;49.494;8.410;2022-12-07T04:22:27;4.60;99.90
28010;DHT22;15334;49.494;8.410;2022-12-07T04:24:55;4.60;99.90
28010;DHT22;15334;49.494;8.410;2022-12-07T04:27:23;4.60;99.90
28010;DHT22;15334;49.494;8.410;2022-12-07T04:29:51;4.70;99.90
28010;DHT22;15334;49.494;8.410;2022-12-07T04:32:19;4.70;99.90
28010;DHT22;15334;49.494;8.410;2022-12-07T04:34:48;4.60;99.90
28010;DHT22;15334;49.494;8.410;2022-12-07T04:37:23;4.60;99.90
28010;DHT22;15334;49.494;8.410;2022-12-07T04:39:51;4.50;99.90
28010;DHT22;15334;49.494;8.410;2022-12-07T04:42:19;4.60;99.90
28010;DHT22;15334;49.494;8.410;2022-12-07T04:44:46;4.60;99.90
28010;DHT22;15334;49.494;8.410;2022-12-07T04:47:14;4.60;99.90
28010;DHT22;15334;49.494;8.410;2022-12-07T04:49:42;4.60;99.90
28010;DHT22;15334;49.494;8.410;2022-12-07T04:52:10;4.60;99.90
28010;DHT22;15334;49.494;8.410;2022-12-07T04:54:40;4.60;99.90
28010;DHT22;15334;49.494;8.410;2022-12-07T04:57:08;4.60;99.90
28010;DHT22;15334;49.494;8.410;2022-12-07T04:59:36;4.60;99.90
28010;DHT22;15334;49.494;8.410;2022-12-07T05:02:11;4.60;99.90
28010;DHT22;15334;49.494;8.410;2022-12-07T05:04:40;4.60;99.90
28010;DHT22;15334;49.494;8.410;2022-12-07T05:07:08;4.60;99.90
28010;DHT22;15334;49.494;8.410;2022-12-07T05:09:36;4.70;99.90
28010;DHT22;15334;49.494;8.410;2022-12-07T05:12:05;4.60;99.90
28010;DHT22;15334;49.494;8.410;2022-12-07T05:14:33;4.50;99.90
28010;DHT22;15334;49.494;8.410;2022-12-07T05:17:01;4.50;99.90
28010;DHT22;15334;49.494;8.410;2022-12-07T05:19:30;4.40;99.90
28010;DHT22;15334;49.494;8.410;2022-12-07T05:22:01;4.50;99.90
28010;DHT22;15334;49.494;8.410;2022-12-07T05:24:29;4.60;99.90
28010;DHT22;15334;49.494;8.410;2022-12-07T05:26:57;4.60;99.90
28010;DHT22;15334;49.494;8.410;2022-12-07T05:29:27;4.60;99.90
28010;DHT22;15334;49.494;8.410;2022-12-07T05:31:55;4.60;99.90
28010;DHT22;15334;49.494;8.410;2022-12-07T05:34:26;4.50;99.90
28010;DHT22;15334;49.494;8.410;2022-12-07T05:36:54;4.50;99.90
28010;DHT22;15334;49.494;8.410;2022-12-07T05:39:22;4.50;99.90
28010;DHT22;15334;49.494;8.410;2022-12-07T05:41:50;4.50;99.90
28010;DHT22;15334;49.494;8.410;2022-12-07T05:44:37;4.50;99.90
28010;DHT22;15334;49.494;8.410;2022-12-07T05:47:05;4.50;99.90
28010;DHT22;15334;49.494;8.410;2022-12-07T05:49:33;4.60;99.90
28010;DHT22;15334;49.494;8.410;2022-12-07T05:52:01;4.60;99.90
28010;DHT22;15334;49.494;8.410;2022-12-07T05:54:29;4.60;99.90
28010;DHT22;15334;49.494;8.410;2022-12-07T05:56:57;4.70;99.90
28010;DHT22;15334;49.494;8.410;2022-12-07T05:59:25;4.70;99.90
28010;DHT22;15334;49.494;8.410;2022-12-07T06:01:57;4.70;99.90
28010;DHT22;15334;49.494;8.410;2022-12-07T06:04:27;4.70;99.90
28010;DHT22;15334;49.494;8.410;2022-12-07T06:06:55;4.70;99.90
28010;DHT22;15334;49.494;8.410;2022-12-07T06:09:25;4.70;99.90
28010;DHT22;15334;49.494;8.410;2022-12-07T06:11:54;4.70;99.90
28010;DHT22;15334;49.494;8.410;2022-12-07T06:14:39;4.70;99.90
28010;DHT22;15334;49.494;8.410;2022-12-07T06:17:11;4.70;99.90
28010;DHT22;15334;49.494;8.410;2022-12-07T06:19:40;4.70;99.90
28010;DHT22;15334;49.494;8.410;2022-12-07T06:22:11;4.70;99.90
28010;DHT22;15334;49.494;8.410;2022-12-07T06:24:39;4.80;99.90
28010;DHT22;15334;49.494;8.410;2022-12-07T06:27:08;4.80;99.90
28010;DHT22;15334;49.494;8.410;2022-12-07T06:29:36;4.80;99.90
28010;DHT22;15334;49.494;8.410;2022-12-07T06:32:05;4.80;99.90
28010;DHT22;15334;49.494;8.410;2022-12-07T06:34:34;4.80;99.90
28010;DHT22;15334;49.494;8.410;2022-12-07T06:37:02;4.80;99.90
28010;DHT22;15334;49.494;8.410;2022-12-07T06:39:31;4.80;99.90
28010;DHT22;15334;49.494;8.410;2022-12-07T06:41:59;4.80;99.90
28010;DHT22;15334;49.494;8.410;2022-12-07T06:44:27;4.80;99.90
28010;DHT22;15334;49.494;8.410;2022-12-07T06:46:55;4.90;99.90
28010;DHT22;15334;49.494;8.410;2022-12-07T06:49:44;4.90;99.90
28010;DHT22;15334;49.494;8.410;2022-12-07T06:52:14;4.90;99.90
28010;DHT22;15334;49.494;8.410;2022-12-07T06:54:42;5.00;99.90
28010;DHT22;15334;49.494;8.410;2022-12-07T06:57:12;5.00;99.90
28010;DHT22;15334;49.494;8.410;2022-12-07T06:59:40;5.00;99.90
28010;DHT22;15334;49.494;8.410;2022-12-07T07:02:08;5.00;99.90
28010;DHT22;15334;49.494;8.410;2022-12-07T07:04:36;5.00;99.90
28010;DHT22;15334;49.494;8.410;2022-12-07T07:07:06;5.00;99.90
28010;DHT22;15334;49.494;8.410;2022-12-07T07:09:34;5.00;99.90
28010;DHT22;15334;49.494;8.410;2022-12-07T07:12:02;5.10;99.90
28010;DHT22;15334;49.494;8.410;2022-12-07T07:14:30;5.10;99.90
28010;DHT22;15334;49.494;8.410;2022-12-07T07:17:02;5.10;99.90
28010;DHT22;15334;49.494;8.410;2022-12-07T07:19:30;5.10;99.90
28010;DHT22;15334;49.494;8.410;2022-12-07T07:21:58;5.00;99.90
28010;DHT22;15334;49.494;8.410;2022-12-07T07:24:27;5.10;99.90
28010;DHT22;15334;49.494;8.410;2022-12-07T07:26:55;5.10;99.90
28010;DHT22;15334;49.494;8.410;2022-12-07T07:29:26;5.10;99.90
28010;DHT22;15334;49.494;8.410;2022-12-07T07:31:54;5.20;99.90
28010;DHT22;15334;49.494;8.410;2022-12-07T07:34:32;5.10;99.90
28010;DHT22;15334;49.494;8.410;2022-12-07T07:37:00;5.10;99.90
28010;DHT22;15334;49.494;8.410;2022-12-07T07:39:35;5.20;99.90
28010;DHT22;15334;49.494;8.410;2022-12-07T07:42:08;5.20;99.90
28010;DHT22;15334;49.494;8.410;2022-12-07T07:44:40;5.20;99.90
28010;DHT22;15334;49.494;8.410;2022-12-07T07:47:08;5.20;99.90
28010;DHT22;15334;49.494;8.410;2022-12-07T07:49:36;5.30;99.90
28010;DHT22;15334;49.494;8.410;2022-12-07T07:52:11;5.30;99.90
28010;DHT22;15334;49.494;8.410;2022-12-07T07:54:41;5.30;99.90
28010;DHT22;15334;49.494;8.410;2022-12-07T07:57:09;5.30;99.90
28010;DHT22;15334;49.494;8.410;2022-12-07T07:59:37;5.40;99.90
28010;DHT22;15334;49.494;8.410;2022-12-07T08:02:05;5.40;99.90
28010;DHT22;15334;49.494;8.410;2022-12-07T08:04:33;5.50;99.90
28010;DHT22;15334;49.494;8.410;2022-12-07T08:09:37;5.50;99.90
28010;DHT22;15334;49.494;8.410;2022-12-07T08:12:08;5.50;99.90
28010;DHT22;15334;49.494;8.410;2022-12-07T08:14:36;5.60;99.90
28010;DHT22;15334;49.494;8.410;2022-12-07T08:17:05;5.50;99.90
28010;DHT22;15334;49.494;8.410;2022-12-07T08:19:33;5.60;99.90
28010;DHT22;15334;49.494;8.410;2022-12-07T08:22:04;5.60;99.90
28010;DHT22;15334;49.494;8.410;2022-12-07T08:24:38;5.60;99.90
28010;DHT22;15334;49.494;8.410;2022-12-07T08:27:07;5.70;99.90
28010;DHT22;15334;49.494;8.410;2022-12-07T08:29:36;5.60;99.90
28010;DHT22;15334;49.494;8.410;2022-12-07T08:32:06;5.60;99.90
28010;DHT22;15334;49.494;8.410;2022-12-07T08:34:35;5.60;99.90
28010;DHT22;15334;49.494;8.410;2022-12-07T08:37:03;5.70;99.90
28010;DHT22;15334;49.494;8.410;2022-12-07T08:39:34;5.70;99.90
28010;DHT22;15334;49.494;8.410;2022-12-07T08:42:03;5.70;99.90
28010;DHT22;15334;49.494;8.410;2022-12-07T08:44:33;5.80;99.90
28010;DHT22;15334;49.494;8.410;2022-12-07T08:47:04;5.80;99.90
28010;DHT22;15334;49.494;8.410;2022-12-07T08:49:36;5.80;99.90
28010;DHT22;15334;49.494;8.410;2022-12-07T08:52:05;5.80;99.90
28010;DHT22;15334;49.494;8.410;2022-12-07T08:54:34;5.80;99.90
28010;DHT22;15334;49.494;8.410;2022-12-07T08:57:03;5.80;99.90
28010;DHT22;15334;49.494;8.410;2022-12-07T08:59:35;5.70;99.90
28010;DHT22;15334;49.494;8.410;2022-12-07T09:02:03;5.70;99.90
28010;DHT22;15334;49.494;8.410;2022-12-07T09:04:32;5.80;99.90
28010;DHT22;15334;49.494;8.410;2022-12-07T09:07:03;5.80;99.90
28010;DHT22;15334;49.494;8.410;2022-12-07T09:09:33;5.90;99.90
28010;DHT22;15334;49.494;8.410;2022-12-07T09:12:02;5.90;99.90
28010;DHT22;15334;49.494;8.410;2022-12-07T09:14:36;6.00;99.90
28010;DHT22;15334;49.494;8.410;2022-12-07T09:17:08;6.00;99.90
28010;DHT22;15334;49.494;8.410;2022-12-07T09:19:36;6.00;99.90
28010;DHT22;15334;49.494;8.410;2022-12-07T09:22:06;6.20;99.90
28010;DHT22;15334;49.494;8.410;2022-12-07T09:24:34;6.20;99.90
28010;DHT22;15334;49.494;8.410;2022-12-07T09:27:02;6.20;99.90
28010;DHT22;15334;49.494;8.410;2022-12-07T09:29:30;6.20;99.90
28010;DHT22;15334;49.494;8.410;2022-12-07T09:31:59;6.20;99.90
28010;DHT22;15334;49.494;8.410;2022-12-07T09:34:37;6.20;99.90
28010;DHT22;15334;49.494;8.410;2022-12-07T09:37:05;6.30;99.90
28010;DHT22;15334;49.494;8.410;2022-12-07T09:39:34;6.30;99.90
28010;DHT22;15334;49.494;8.410;2022-12-07T09:42:03;6.40;99.90
28010;DHT22;15334;49.494;8.410;2022-12-07T09:44:32;6.50;99.90
28010;DHT22;15334;49.494;8.410;2022-12-07T09:47:02;6.60;99.90
28010;DHT22;15334;49.494;8.410;2022-12-07T09:49:32;6.70;99.90
28010;DHT22;15334;49.494;8.410;2022-12-07T09:52:02;6.80;99.90
28010;DHT22;15334;49.494;8.410;2022-12-07T09:54:44;6.80;99.90
28010;DHT22;15334;49.494;8.410;2022-12-07T09:57:13;6.70;99.90
28010;DHT22;15334;49.494;8.410;2022-12-07T09:59:41;6.80;99.90
28010;DHT22;15334;49.494;8.410;2022-12-07T10:02:28;6.80;99.90
28010;DHT22;15334;49.494;8.410;2022-12-07T10:05:01;6.90;99.90
28010;DHT22;15334;49.494;8.410;2022-12-07T10:07:33;7.00;99.90
28010;DHT22;15334;49.494;8.410;2022-12-07T10:10:03;7.00;99.90
28010;DHT22;15334;49.494;8.410;2022-12-07T10:12:53;7.20;99.90
28010;DHT22;15334;49.494;8.410;2022-12-07T10:15:23;7.30;99.90
28010;DHT22;15334;49.494;8.410;2022-12-07T10:17:52;7.40;99.90
28010;DHT22;15334;49.494;8.410;2022-12-07T10:20:23;7.40;99.90
28010;DHT22;15334;49.494;8.410;2022-12-07T10:23:00;7.40;99.90
28010;DHT22;15334;49.494;8.410;2022-12-07T10:25:33;7.40;99.90
28010;DHT22;15334;49.494;8.410;2022-12-07T10:28:13;7.50;99.90
28010;DHT22;15334;49.494;8.410;2022-12-07T10:30:55;7.40;99.90
28010;DHT22;15334;49.494;8.410;2022-12-07T10:33:33;7.40;99.90
28010;DHT22;15334;49.494;8.410;2022-12-07T10:36:18;7.40;99.90
28010;DHT22;15334;49.494;8.410;2022-12-07T10:38:48;7.50;99.90
28010;DHT22;15334;49.494;8.410;2022-12-07T10:41:16;7.40;99.90
28010;DHT22;15334;49.494;8.410;2022-12-07T10:43:53;7.30;99.90
28010;DHT22;15334;49.494;8.410;2022-12-07T10:46:46;7.30;99.90
28010;DHT22;15334;49.494;8.410;2022-12-07T10:49:37;7.30;99.90
28010;DHT22;15334;49.494;8.410;2022-12-07T10:52:18;7.40;99.90
28010;DHT22;15334;49.494;8.410;2022-12-07T10:54:59;7.50;99.90
28010;DHT22;15334;49.494;8.410;2022-12-07T10:57:41;7.60;99.90
28010;DHT22;15334;49.494;8.410;2022-12-07T11:00:19;7.60;99.90
28010;DHT22;15334;49.494;8.410;2022-12-07T11:03:14;7.70;99.90
28010;DHT22;15334;49.494;8.410;2022-12-07T11:05:53;7.90;99.90
28010;DHT22;15334;49.494;8.410;2022-12-07T11:08:38;8.00;99.90
28010;DHT22;15334;49.494;8.410;2022-12-07T11:11:11;8.10;99.90
28010;DHT22;15334;49.494;8.410;2022-12-07T11:13:46;8.10;99.90
28010;DHT22;15334;49.494;8.410;2022-12-07T11:16:39;7.90;99.90
28010;DHT22;15334;49.494;8.410;2022-12-07T11:19:24;7.70;99.90
28010;DHT22;15334;49.494;8.410;2022-12-07T11:21:58;7.50;99.90
28010;DHT22;15334;49.494;8.410;2022-12-07T11:24:31;7.40;99.90
28010;DHT22;15334;49.494;8.410;2022-12-07T11:27:10;7.30;99.90
28010;DHT22;15334;49.494;8.410;2022-12-07T11:32:58;7.30;99.90
28010;DHT22;15334;49.494;8.410;2022-12-07T11:35:39;7.30;99.90
28010;DHT22;15334;49.494;8.410;2022-12-07T11:38:13;7.30;99.90
28010;DHT22;15334;49.494;8.410;2022-12-07T11:40:46;7.30;99.90
28010;DHT22;15334;49.494;8.410;2022-12-07T11:43:20;7.30;99.90
28010;DHT22;15334;49.494;8.410;2022-12-07T11:45:56;7.30;99.90
28010;DHT22;15334;49.494;8.410;2022-12-07T11:48:33;7.50;99.90
28010;DHT22;15334;49.494;8.410;2022-12-07T11:51:03;7.90;99.90
28010;DHT22;15334;49.494;8.410;2022-12-07T11:53:37;8.90;99.90
28010;DHT22;15334;49.494;8.410;2022-12-07T11:56:10;9.50;99.90
28010;DHT22;15334;49.494;8.410;2022-12-07T11:58:47;9.50;99.90
28010;DHT22;15334;49.494;8.410;2022-12-07T12:01:26;9.60;99.90
28010;DHT22;15334;49.494;8.410;2022-12-07T12:04:03;9.90;99.90
28010;DHT22;15334;49.494;8.410;2022-12-07T12:06:35;10.40;99.90
28010;DHT22;15334;49.494;8.410;2022-12-07T12:09:09;10.90;99.90
28010;DHT22;15334;49.494;8.410;2022-12-07T12:15:47;11.20;99.90
28010;DHT22;15334;49.494;8.410;2022-12-07T12:18:39;10.30;99.90
28010;DHT22;15334;49.494;8.410;2022-12-07T12:21:12;8.80;99.90
28010;DHT22;15334;49.494;8.410;2022-12-07T12:23:49;8.20;99.90
28010;DHT22;15334;49.494;8.410;2022-12-07T12:26:21;8.00;99.90
28010;DHT22;15334;49.494;8.410;2022-12-07T12:28:53;8.00;99.90
28010;DHT22;15334;49.494;8.410;2022-12-07T12:31:33;7.70;99.90
28010;DHT22;15334;49.494;8.410;2022-12-07T12:36:56;7.40;99.90
28010;DHT22;15334;49.494;8.410;2022-12-07T12:39:24;7.50;99.90
28010;DHT22;15334;49.494;8.410;2022-12-07T12:41:58;7.60;99.90
28010;DHT22;15334;49.494;8.410;2022-12-07T12:45:18;7.60;99.90
28010;DHT22;15334;49.494;8.410;2022-12-07T12:48:09;7.40;99.90
28010;DHT22;15334;49.494;8.410;2022-12-07T12:54:03;7.60;99.90
28010;DHT22;15334;49.494;8.410;2022-12-07T12:56:39;7.50;99.90
28010;DHT22;15334;49.494;8.410;2022-12-07T12:59:24;7.40;99.90
28010;DHT22;15334;49.494;8.410;2022-12-07T13:01:56;7.40;99.90
28010;DHT22;15334;49.494;8.410;2022-12-07T13:04:38;7.40;99.90
28010;DHT22;15334;49.494;8.410;2022-12-07T13:10:37;7.40;99.90
28010;DHT22;15334;49.494;8.410;2022-12-07T13:13:31;7.40;99.90
28010;DHT22;15334;49.494;8.410;2022-12-07T13:22:50;7.20;99.90
28010;DHT22;15334;49.494;8.410;2022-12-07T13:25:31;7.20;99.90
28010;DHT22;15334;49.494;8.410;2022-12-07T13:28:07;7.30;99.90
28010;DHT22;15334;49.494;8.410;2022-12-07T13:30:45;7.30;99.90
28010;DHT22;15334;49.494;8.410;2022-12-07T13:33:18;7.40;99.90
28010;DHT22;15334;49.494;8.410;2022-12-07T13:35:46;7.40;99.90
28010;DHT22;15334;49.494;8.410;2022-12-07T13:38:29;7.30;99.90
28010;DHT22;15334;49.494;8.410;2022-12-07T13:41:11;7.20;99.90
28010;DHT22;15334;49.494;8.410;2022-12-07T13:43:44;7.20;99.90
28010;DHT22;15334;49.494;8.410;2022-12-07T13:46:13;7.10;99.90
28010;DHT22;15334;49.494;8.410;2022-12-07T13:48:46;7.20;99.90
28010;DHT22;15334;49.494;8.410;2022-12-07T13:51:19;7.30;99.90
28010;DHT22;15334;49.494;8.410;2022-12-07T13:53:50;7.40;99.90
28010;DHT22;15334;49.494;8.410;2022-12-07T13:56:25;7.50;99.90
28010;DHT22;15334;49.494;8.410;2022-12-07T13:58:54;7.50;99.90
28010;DHT22;15334;49.494;8.410;2022-12-07T14:01:24;7.50;99.90
28010;DHT22;15334;49.494;8.410;2022-12-07T14:03:52;7.40;99.90
28010;DHT22;15334;49.494;8.410;2022-12-07T14:06:23;7.30;99.90
28010;DHT22;15334;49.494;8.410;2022-12-07T14:09:17;7.20;99.90
28010;DHT22;15334;49.494;8.410;2022-12-07T14:11:46;7.20;99.90
28010;DHT22;15334;49.494;8.410;2022-12-07T14:14:17;7.10;99.90
28010;DHT22;15334;49.494;8.410;2022-12-07T14:16:59;7.00;99.90
28010;DHT22;15334;49.494;8.410;2022-12-07T14:19:55;6.90;99.90
28010;DHT22;15334;49.494;8.410;2022-12-07T14:22:29;6.80;99.90
28010;DHT22;15334;49.494;8.410;2022-12-07T14:25:22;6.80;99.90
28010;DHT22;15334;49.494;8.410;2022-12-07T14:27:54;6.70;99.90
28010;DHT22;15334;49.494;8.410;2022-12-07T14:30:25;6.60;99.90
28010;DHT22;15334;49.494;8.410;2022-12-07T14:32:57;6.60;99.90
28010;DHT22;15334;49.494;8.410;2022-12-07T14:35:29;6.50;99.90
28010;DHT22;15334;49.494;8.410;2022-12-07T14:37:57;6.60;99.90
28010;DHT22;15334;49.494;8.410;2022-12-07T14:40:28;6.60;99.90
28010;DHT22;15334;49.494;8.410;2022-12-07T14:42:59;6.60;99.90
28010;DHT22;15334;49.494;8.410;2022-12-07T14:45:31;6.60;99.90
28010;DHT22;15334;49.494;8.410;2022-12-07T14:47:59;6.70;99.90
28010;DHT22;15334;49.494;8.410;2022-12-07T14:50:50;6.70;99.90
28010;DHT22;15334;49.494;8.410;2022-12-07T14:53:41;6.60;99.90
28010;DHT22;15334;49.494;8.410;2022-12-07T14:56:12;6.50;99.90
28010;DHT22;15334;49.494;8.410;2022-12-07T14:58:43;6.50;99.90
28010;DHT22;15334;49.494;8.410;2022-12-07T15:01:12;6.50;99.90
28010;DHT22;15334;49.494;8.410;2022-12-07T15:03:43;6.50;99.90
28010;DHT22;15334;49.494;8.410;2022-12-07T15:06:14;6.40;99.90
28010;DHT22;15334;49.494;8.410;2022-12-07T15:08:42;6.40;99.90
28010;DHT22;15334;49.494;8.410;2022-12-07T15:11:13;6.30;99.90
28010;DHT22;15334;49.494;8.410;2022-12-07T15:13:41;6.30;99.90
28010;DHT22;15334;49.494;8.410;2022-12-07T15:16:27;6.30;99.90
28010;DHT22;15334;49.494;8.410;2022-12-07T15:19:16;6.30;99.90
28010;DHT22;15334;49.494;8.410;2022-12-07T15:21:54;6.30;99.90
28010;DHT22;15334;49.494;8.410;2022-12-07T15:24:23;6.30;99.90
28010;DHT22;15334;49.494;8.410;2022-12-07T15:26:53;6.20;99.90
28010;DHT22;15334;49.494;8.410;2022-12-07T15:29:21;6.20;99.90
28010;DHT22;15334;49.494;8.410;2022-12-07T15:31:52;6.20;99.90
28010;DHT22;15334;49.494;8.410;2022-12-07T15:34:23;6.20;99.90
28010;DHT22;15334;49.494;8.410;2022-12-07T15:36:51;6.20;99.90
28010;DHT22;15334;49.494;8.410;2022-12-07T15:39:19;6.20;99.90
28010;DHT22;15334;49.494;8.410;2022-12-07T15:41:48;6.20;99.90
28010;DHT22;15334;49.494;8.410;2022-12-07T15:44:17;6.10;99.90
28010;DHT22;15334;49.494;8.410;2022-12-07T15:47:04;6.10;99.90
28010;DHT22;15334;49.494;8.410;2022-12-07T15:49:34;6.10;99.90
28010;DHT22;15334;49.494;8.410;2022-12-07T15:52:05;6.10;99.90
28010;DHT22;15334;49.494;8.410;2022-12-07T15:54:33;6.00;99.90
28010;DHT22;15334;49.494;8.410;2022-12-07T15:57:01;6.00;99.90
28010;DHT22;15334;49.494;8.410;2022-12-07T15:59:33;6.00;99.90
28010;DHT22;15334;49.494;8.410;2022-12-07T16:02:01;6.00;99.90
28010;DHT22;15334;49.494;8.410;2022-12-07T16:04:29;5.90;99.90
28010;DHT22;15334;49.494;8.410;2022-12-07T16:06:58;6.00;99.90
28010;DHT22;15334;49.494;8.410;2022-12-07T16:09:27;5.90;99.90
28010;DHT22;15334;49.494;8.410;2022-12-07T16:11:55;5.90;99.90
28010;DHT22;15334;49.494;8.410;2022-12-07T16:14:26;6.00;99.90
28010;DHT22;15334;49.494;8.410;2022-12-07T16:16:59;5.90;99.90
28010;DHT22;15334;49.494;8.410;2022-12-07T16:19:27;5.90;99.90
28010;DHT22;15334;49.494;8.410;2022-12-07T16:21:55;5.90;99.90
28010;DHT22;15334;49.494;8.410;2022-12-07T16:24:25;5.90;99.90
28010;DHT22;15334;49.494;8.410;2022-12-07T16:26:54;5.90;99.90
28010;DHT22;15334;49.494;8.410;2022-12-07T16:29:22;5.90;99.90
28010;DHT22;15334;49.494;8.410;2022-12-07T16:31:53;5.90;99.90
28010;DHT22;15334;49.494;8.410;2022-12-07T16:34:23;5.90;99.90
28010;DHT22;15334;49.494;8.410;2022-12-07T16:36:50;5.90;99.90
28010;DHT22;15334;49.494;8.410;2022-12-07T16:39:34;5.90;99.90
28010;DHT22;15334;49.494;8.410;2022-12-07T16:42:02;5.90;99.90
28010;DHT22;15334;49.494;8.410;2022-12-07T16:44:30;5.80;99.90